Weather at Sultan Mahmud Badaruddin II Airport

Public forecast

Using degrees Celsius for public forecast. Weather courtesy of forecast.io.

Current aviation weather report (METAR) for Sultan Mahmud Badaruddin II Airport

2023/05/27 22:30 (retrieved 49 minutes ago)

WIPP 272230Z 00000KT 5000 BR SCT010 26/25 Q1009 NOSIG

Aviation forecast (TAF) for Sultan Mahmud Badaruddin II Airport

2023/05/27 18:00 (retrieved 5 hours ago)

TAF WIPP 271700Z 2718/2818 12006KT 9999 SCT010 TEMPO 2721/2724 3000 BR